createdAt,value
2023-04-24T00:02:27.535Z,19.00
2023-04-24T00:05:03.350Z,18.70
2023-04-24T00:07:35.260Z,19.40
2023-04-24T00:10:07.347Z,19.40
2023-04-24T00:12:39.438Z,19.30
2023-04-24T00:15:11.166Z,18.90
2023-04-24T00:17:42.134Z,18.60
2023-04-24T00:20:13.118Z,18.70
2023-04-24T00:22:44.255Z,18.90
2023-04-24T00:25:15.227Z,18.60
2023-04-24T00:27:46.154Z,18.90
2023-04-24T00:30:17.190Z,18.00
2023-04-24T00:32:48.134Z,18.40
2023-04-24T00:35:20.950Z,18.50
2023-04-24T00:37:51.886Z,18.70
2023-04-24T00:40:22.811Z,18.30
2023-04-24T00:42:53.723Z,18.40
2023-04-24T00:45:24.615Z,18.80
2023-04-24T00:47:55.670Z,18.60
2023-04-24T00:50:27.569Z,18.60
2023-04-24T00:52:58.537Z,18.70
2023-04-24T00:55:29.911Z,18.90
2023-04-24T00:58:00.974Z,18.40
2023-04-24T01:00:32.710Z,18.90
2023-04-24T01:03:07.173Z,18.80
2023-04-24T01:05:38.291Z,18.70
2023-04-24T01:08:09.418Z,19.00
2023-04-24T01:10:42.201Z,19.10
2023-04-24T01:13:13.103Z,18.90
2023-04-24T01:15:44.126Z,19.20
2023-04-24T01:18:16.377Z,18.80
2023-04-24T01:20:47.862Z,19.20
2023-04-24T01:23:18.776Z,19.20
2023-04-24T01:25:50.735Z,19.30
2023-04-24T01:28:22.165Z,19.40
2023-04-24T01:30:54.548Z,18.90
2023-04-24T01:33:25.564Z,19.20
2023-04-24T01:35:56.577Z,19.30
2023-04-24T01:38:27.545Z,19.00
2023-04-24T01:40:58.491Z,19.20
2023-04-24T01:43:30.321Z,18.80
2023-04-24T01:46:01.359Z,19.00
2023-04-24T01:48:32.919Z,19.40
2023-04-24T01:51:03.951Z,19.00
2023-04-24T01:53:34.835Z,19.00
2023-04-24T01:56:06.509Z,18.60
2023-04-24T01:58:37.654Z,18.90
2023-04-24T02:01:08.610Z,19.00
2023-04-24T02:03:40.285Z,18.60
2023-04-24T02:06:11.348Z,18.90
2023-04-24T02:08:42.717Z,19.20
2023-04-24T02:11:13.888Z,19.30
2023-04-24T02:13:44.753Z,19.50
2023-04-24T02:16:15.710Z,19.30
2023-04-24T02:18:46.726Z,19.00
2023-04-24T02:21:17.669Z,19.30
2023-04-24T02:23:49.410Z,18.70
2023-04-24T02:26:20.404Z,19.30
2023-04-24T02:28:51.392Z,19.20
2023-04-24T02:31:22.284Z,18.80
2023-04-24T02:33:53.225Z,19.10
2023-04-24T02:36:24.169Z,19.50
2023-04-24T02:38:55.330Z,19.60
2023-04-24T02:41:32.231Z,19.50
2023-04-24T02:44:03.119Z,18.80
2023-04-24T02:46:34.099Z,19.00
2023-04-24T02:49:05.035Z,19.10
2023-04-24T02:51:36.046Z,18.60
2023-04-24T02:54:06.970Z,18.10
2023-04-24T02:56:37.940Z,18.30
2023-04-24T02:59:08.912Z,18.00
2023-04-24T03:01:39.940Z,18.00
2023-04-24T03:04:11.582Z,17.90
2023-04-24T03:06:42.866Z,18.30
2023-04-24T03:09:13.813Z,18.00
2023-04-24T03:11:44.769Z,18.30
2023-04-24T03:14:15.867Z,18.50
2023-04-24T03:16:46.912Z,18.30
2023-04-24T03:19:17.823Z,18.40
2023-04-24T03:21:49.311Z,18.30
2023-04-24T03:24:21.762Z,18.30
2023-04-24T03:26:52.723Z,18.40
2023-04-24T03:29:23.714Z,18.20
2023-04-24T03:31:54.747Z,18.10
2023-04-24T03:34:25.977Z,17.90
2023-04-24T03:36:56.858Z,18.30
2023-04-24T03:39:28.396Z,17.60
2023-04-24T03:41:59.264Z,17.70
2023-04-24T03:44:30.226Z,17.30
2023-04-24T03:47:01.275Z,18.20
2023-04-24T03:49:32.175Z,18.00
2023-04-24T03:52:03.157Z,18.40
2023-04-24T03:54:34.020Z,18.40
2023-04-24T03:57:05.777Z,18.40
2023-04-24T03:59:36.713Z,18.40
2023-04-24T04:02:08.225Z,18.50
2023-04-24T04:04:39.439Z,18.70
2023-04-24T04:07:10.595Z,18.60
2023-04-24T04:09:41.873Z,18.70
2023-04-24T04:12:13.823Z,18.80
2023-04-24T04:14:44.748Z,18.70
2023-04-24T04:17:16.159Z,18.60
2023-04-24T04:19:47.109Z,18.90
2023-04-24T04:22:18.019Z,18.50
2023-04-24T04:24:48.931Z,18.70
2023-04-24T04:27:20.020Z,18.30
2023-04-24T04:29:51.158Z,18.20
2023-04-24T04:32:22.613Z,16.60
2023-04-24T04:34:54.750Z,16.40
2023-04-24T04:37:26.349Z,16.90
2023-04-24T04:39:59.057Z,17.40
2023-04-24T04:42:30.053Z,17.30
2023-04-24T04:45:03.717Z,17.90
2023-04-24T04:47:34.722Z,17.40
2023-04-24T04:50:06.661Z,17.30
2023-04-24T04:52:37.627Z,16.90
2023-04-24T04:55:09.161Z,16.60
2023-04-24T04:57:40.561Z,16.90
2023-04-24T05:00:12.685Z,16.80
2023-04-24T05:02:43.915Z,17.50
2023-04-24T05:05:14.897Z,17.80
2023-04-24T05:07:46.024Z,18.10
2023-04-24T05:10:16.935Z,17.90
2023-04-24T05:12:47.806Z,17.00
2023-04-24T05:15:18.860Z,17.70
2023-04-24T05:17:49.737Z,17.60
2023-04-24T05:20:20.676Z,17.40
2023-04-24T05:22:51.714Z,17.10
2023-04-24T05:25:22.613Z,17.20
2023-04-24T05:27:54.511Z,17.20
2023-04-24T05:30:25.657Z,17.70
2023-04-24T05:32:56.592Z,16.70
2023-04-24T05:35:27.503Z,17.20
2023-04-24T05:37:58.424Z,17.30
2023-04-24T05:40:29.338Z,17.40
2023-04-24T05:43:00.265Z,17.70
2023-04-24T05:45:31.160Z,18.10
2023-04-24T05:48:02.080Z,18.10
2023-04-24T05:50:34.929Z,18.30
2023-04-24T05:53:08.249Z,17.60
2023-04-24T05:55:39.364Z,17.10
2023-04-24T05:58:10.691Z,17.80
2023-04-24T06:00:43.674Z,17.90
2023-04-24T06:03:15.648Z,18.20
2023-04-24T06:05:46.840Z,17.70
2023-04-24T06:08:17.835Z,17.90
2023-04-24T06:10:48.774Z,18.00
2023-04-24T06:13:19.665Z,18.10
2023-04-24T06:15:50.583Z,18.20
2023-04-24T06:18:21.553Z,18.00
2023-04-24T06:20:52.885Z,17.50
2023-04-24T06:23:23.757Z,17.70
2023-04-24T06:25:54.704Z,18.30
2023-04-24T06:28:26.109Z,18.20
2023-04-24T06:30:57.047Z,18.20
2023-04-24T06:33:27.931Z,17.90
2023-04-24T06:35:58.927Z,17.70
2023-04-24T06:38:30.709Z,18.00
2023-04-24T06:41:01.625Z,18.30
2023-04-24T06:43:33.120Z,18.60
2023-04-24T06:46:04.646Z,18.60
2023-04-24T06:48:35.654Z,19.10
2023-04-24T06:51:07.006Z,18.50
2023-04-24T06:53:38.337Z,18.40
2023-04-24T06:56:09.272Z,18.30
2023-04-24T06:58:40.166Z,18.30
2023-04-24T07:01:12.201Z,18.80
2023-04-24T07:03:43.409Z,18.00
2023-04-24T07:06:14.586Z,17.90
2023-04-24T07:08:45.563Z,18.20
2023-04-24T07:11:16.775Z,18.10
2023-04-24T07:13:47.678Z,18.50
2023-04-24T07:16:18.675Z,18.30
2023-04-24T07:18:49.542Z,18.40
2023-04-24T07:21:20.509Z,18.90
2023-04-24T07:23:51.373Z,19.00
2023-04-24T07:26:22.299Z,19.20
2023-04-24T07:28:53.363Z,18.10
2023-04-24T07:31:24.563Z,17.40
2023-04-24T07:33:55.447Z,17.10
2023-04-24T07:36:27.075Z,17.10
2023-04-24T07:38:58.043Z,17.60
2023-04-24T07:41:29.159Z,17.70
2023-04-24T07:44:00.323Z,16.90
2023-04-24T07:46:31.835Z,17.70
2023-04-24T07:49:13.180Z,17.90
2023-04-24T07:51:44.763Z,17.10
2023-04-24T07:54:15.808Z,17.40
2023-04-24T07:56:46.680Z,17.90
2023-04-24T07:59:17.601Z,17.70
2023-04-24T08:01:48.476Z,16.90
2023-04-24T08:04:20.029Z,17.50
2023-04-24T08:06:51.115Z,17.40
2023-04-24T08:09:22.040Z,17.20
2023-04-24T08:11:52.945Z,17.00
2023-04-24T08:14:23.870Z,17.10
2023-04-24T08:16:57.632Z,16.90
2023-04-24T08:19:28.535Z,17.00
2023-04-24T08:21:59.504Z,16.80
2023-04-24T08:24:30.679Z,17.50
2023-04-24T08:27:02.361Z,17.30
2023-04-24T08:29:33.488Z,17.60
2023-04-24T08:32:04.518Z,18.30
2023-04-24T08:34:35.636Z,17.90
2023-04-24T08:37:06.549Z,17.30
2023-04-24T08:39:39.017Z,17.90
2023-04-24T08:42:10.658Z,17.80
2023-04-24T08:44:42.054Z,17.80
2023-04-24T08:47:16.193Z,17.80
2023-04-24T08:49:50.239Z,17.40
2023-04-24T08:52:22.909Z,17.60
2023-04-24T08:54:55.741Z,17.30
2023-04-24T08:57:28.177Z,17.60
2023-04-24T09:00:00.047Z,17.60
2023-04-24T09:02:32.554Z,17.80
2023-04-24T09:05:04.751Z,18.30
2023-04-24T09:07:37.515Z,17.80
2023-04-24T09:10:09.544Z,17.90
2023-04-24T09:12:40.673Z,17.50
2023-04-24T09:15:12.539Z,17.10
2023-04-24T09:17:44.640Z,17.30
2023-04-24T09:20:15.717Z,17.10
2023-04-24T09:22:46.645Z,17.20
2023-04-24T09:25:17.700Z,17.00
2023-04-24T09:27:49.001Z,17.10
2023-04-24T09:30:23.839Z,16.60
2023-04-24T09:33:16.085Z,15.60
2023-04-24T09:35:52.937Z,15.50
2023-04-24T09:38:39.796Z,15.70
2023-04-24T09:41:15.162Z,15.20
2023-04-24T09:43:46.285Z,15.90
2023-04-24T09:46:19.910Z,15.80
2023-04-24T09:48:51.471Z,15.60
2023-04-24T09:51:40.818Z,16.30
2023-04-24T09:54:18.224Z,16.40
2023-04-24T09:56:52.079Z,16.50
2023-04-24T09:59:23.848Z,16.60
2023-04-24T10:01:54.865Z,17.70
2023-04-24T10:04:29.242Z,17.00
2023-04-24T10:07:02.103Z,16.60
2023-04-24T10:09:33.506Z,17.10
2023-04-24T10:12:04.925Z,17.10
2023-04-24T10:14:36.167Z,17.80
2023-04-24T10:17:07.902Z,18.00
2023-04-24T10:19:39.632Z,16.90
2023-04-24T10:22:12.053Z,17.50
2023-04-24T10:24:44.417Z,17.40
2023-04-24T10:27:16.605Z,17.60
2023-04-24T10:29:50.278Z,17.40
2023-04-24T10:32:21.686Z,18.30
2023-04-24T10:34:52.725Z,19.00
2023-04-24T10:37:25.441Z,18.40
2023-04-24T10:39:57.117Z,17.90
2023-04-24T10:42:29.339Z,18.00
2023-04-24T10:45:03.011Z,18.40
2023-04-24T10:47:43.448Z,17.80
2023-04-24T10:50:14.664Z,17.60
2023-04-24T10:52:52.351Z,17.50
2023-04-24T10:55:51.969Z,17.70
2023-04-24T10:58:39.342Z,17.90
2023-04-24T11:01:10.337Z,17.30
2023-04-24T11:03:56.596Z,17.40
2023-04-24T11:06:36.977Z,17.40
2023-04-24T11:09:13.295Z,17.30
2023-04-24T11:11:48.492Z,17.30
2023-04-24T11:14:19.315Z,17.40
2023-04-24T11:16:57.350Z,17.30
2023-04-24T11:19:29.905Z,17.60
2023-04-24T11:22:07.162Z,17.10
2023-04-24T11:24:41.574Z,17.60
2023-04-24T11:27:21.333Z,17.50
2023-04-24T11:29:58.545Z,17.90
2023-04-24T11:32:36.236Z,18.30
2023-04-24T11:35:17.374Z,18.00
2023-04-24T11:40:26.511Z,17.90
2023-04-24T11:42:57.467Z,18.00
2023-04-24T11:45:33.281Z,18.10
2023-04-24T11:48:05.002Z,17.90
2023-04-24T11:50:36.290Z,17.80
2023-04-24T11:53:07.209Z,17.50
2023-04-24T11:55:38.792Z,17.20
2023-04-24T11:58:09.892Z,17.30
2023-04-24T12:00:40.901Z,17.10
2023-04-24T12:03:13.390Z,17.60
2023-04-24T12:05:45.842Z,17.60
2023-04-24T12:08:33.340Z,18.20
2023-04-24T12:11:08.290Z,17.80
2023-04-24T12:13:39.620Z,17.80
2023-04-24T12:16:10.795Z,18.50
2023-04-24T12:18:47.032Z,17.70
2023-04-24T12:21:23.687Z,17.70
2023-04-24T12:23:56.637Z,18.20
2023-04-24T12:26:30.124Z,18.50
2023-04-24T12:29:04.450Z,17.80
2023-04-24T12:31:35.405Z,17.70
2023-04-24T12:34:22.903Z,17.90
2023-04-24T12:36:53.974Z,17.30
2023-04-24T12:39:27.725Z,17.40
2023-04-24T12:42:00.309Z,17.40
2023-04-24T12:44:38.122Z,17.00
2023-04-24T12:47:10.439Z,17.30
2023-04-24T12:49:41.369Z,17.80
2023-04-24T12:52:12.256Z,17.80
2023-04-24T12:54:43.166Z,17.20
2023-04-24T12:57:14.220Z,17.40
2023-04-24T12:59:45.224Z,18.10
2023-04-24T13:02:18.700Z,18.20
2023-04-24T13:04:50.848Z,17.40
2023-04-24T13:07:22.179Z,16.60
2023-04-24T13:09:54.894Z,16.10
2023-04-24T13:12:26.774Z,16.40
2023-04-24T13:14:59.790Z,15.90
2023-04-24T13:17:30.903Z,16.30
2023-04-24T13:20:01.956Z,16.30
2023-04-24T13:22:32.811Z,16.10
2023-04-24T13:25:04.669Z,16.80
2023-04-24T13:27:35.600Z,17.20
2023-04-24T13:30:08.433Z,17.00
2023-04-24T13:32:39.471Z,17.10
2023-04-24T13:35:10.726Z,17.40
2023-04-24T13:37:41.721Z,17.40
2023-04-24T13:40:12.702Z,17.70
2023-04-24T13:42:44.342Z,17.70
2023-04-24T13:45:24.730Z,18.00
2023-04-24T13:47:57.905Z,17.50
2023-04-24T13:50:28.818Z,17.20
2023-04-24T13:53:02.695Z,16.90
2023-04-24T13:55:33.925Z,17.10
2023-04-24T13:58:04.859Z,16.90
2023-04-24T14:00:35.877Z,16.70
2023-04-24T14:03:06.941Z,16.70
2023-04-24T14:05:38.902Z,16.00
2023-04-24T14:08:09.980Z,15.90
2023-04-24T14:10:40.898Z,16.60
2023-04-24T14:13:11.906Z,16.80
2023-04-24T14:15:42.905Z,17.50
2023-04-24T14:18:13.901Z,17.90
2023-04-24T14:20:44.888Z,17.30
2023-04-24T14:23:18.403Z,17.90
2023-04-24T14:25:52.655Z,18.70
2023-04-24T14:28:23.549Z,18.30
2023-04-24T14:30:54.804Z,17.60
2023-04-24T14:33:25.678Z,18.10
2023-04-24T14:35:56.629Z,18.80
2023-04-24T14:38:27.724Z,18.80
2023-04-24T14:41:06.829Z,19.30
2023-04-24T14:43:39.406Z,19.30
2023-04-24T14:46:10.324Z,18.50
2023-04-24T14:48:41.657Z,17.90
2023-04-24T14:51:13.213Z,17.60
2023-04-24T14:53:44.413Z,18.00
2023-04-24T14:56:16.354Z,18.30
2023-04-24T14:58:47.444Z,18.20
2023-04-24T15:01:19.059Z,18.50
2023-04-24T15:03:50.369Z,19.10
2023-04-24T15:06:21.596Z,19.00
2023-04-24T15:08:52.517Z,19.10
2023-04-24T15:11:23.472Z,19.20
2023-04-24T15:13:54.421Z,19.00
2023-04-24T15:16:25.959Z,18.50
2023-04-24T15:18:58.145Z,18.50
2023-04-24T15:21:29.115Z,18.00
2023-04-24T15:24:00.496Z,18.10
2023-04-24T15:26:31.777Z,17.90
2023-04-24T15:29:03.407Z,18.50
2023-04-24T15:31:34.350Z,18.30
2023-04-24T15:34:05.392Z,18.30
2023-04-24T15:36:36.459Z,17.40
2023-04-24T15:39:09.519Z,17.30
2023-04-24T15:41:40.616Z,16.90
2023-04-24T15:44:11.978Z,16.70
2023-04-24T15:46:42.928Z,16.40
2023-04-24T15:49:13.817Z,16.20
2023-04-24T15:51:44.781Z,16.50
2023-04-24T15:54:15.740Z,16.90
2023-04-24T15:56:46.758Z,17.10
2023-04-24T15:59:23.070Z,17.10
2023-04-24T16:01:55.704Z,17.70
2023-04-24T16:04:26.975Z,17.80
2023-04-24T16:06:59.462Z,18.80
2023-04-24T16:09:30.501Z,18.60
2023-04-24T16:12:02.404Z,19.30
2023-04-24T16:14:33.468Z,19.90
2023-04-24T16:17:04.714Z,19.20
2023-04-24T16:19:35.716Z,19.80
2023-04-24T16:22:06.672Z,19.60
2023-04-24T16:24:37.644Z,20.20
2023-04-24T16:27:08.854Z,20.30
2023-04-24T16:29:39.813Z,20.70
2023-04-24T16:32:11.244Z,21.00
2023-04-24T16:34:42.204Z,20.70
2023-04-24T16:37:13.150Z,20.20
2023-04-24T16:39:45.241Z,20.40
2023-04-24T16:42:17.003Z,20.00
2023-04-24T16:44:48.129Z,19.60
2023-04-24T16:47:19.616Z,19.80
2023-04-24T16:49:50.680Z,19.90
2023-04-24T16:52:21.616Z,19.30
2023-04-24T16:54:52.508Z,19.10
2023-04-24T16:57:24.623Z,20.30
2023-04-24T16:59:55.753Z,20.60
2023-04-24T17:02:26.763Z,20.70
2023-04-24T17:04:57.861Z,21.40
2023-04-24T17:07:29.512Z,21.60
2023-04-24T17:10:00.493Z,21.50
2023-04-24T17:12:31.452Z,20.70
2023-04-24T17:15:02.605Z,20.90
2023-04-24T17:17:33.674Z,21.00
2023-04-24T17:20:18.619Z,20.70
2023-04-24T17:22:53.008Z,20.70
2023-04-24T17:25:23.950Z,20.60
2023-04-24T17:27:55.068Z,20.80
2023-04-24T17:30:26.131Z,21.00
2023-04-24T17:32:57.044Z,21.00
2023-04-24T17:35:28.140Z,20.40
2023-04-24T17:37:59.052Z,20.10
2023-04-24T17:40:30.023Z,19.30
2023-04-24T17:43:01.260Z,18.80
2023-04-24T17:45:32.589Z,18.70
2023-04-24T17:48:03.656Z,19.50
2023-04-24T17:50:34.606Z,18.90
2023-04-24T17:53:05.903Z,18.90
2023-04-24T17:55:37.791Z,19.20
2023-04-24T17:58:08.698Z,19.10
2023-04-24T18:00:39.918Z,18.70
2023-04-24T18:03:11.224Z,19.50
2023-04-24T18:05:42.339Z,18.70
2023-04-24T18:08:13.853Z,19.00
2023-04-24T18:10:45.071Z,18.90
2023-04-24T18:13:16.169Z,19.20
2023-04-24T18:15:47.187Z,19.30
2023-04-24T18:18:18.180Z,19.70
2023-04-24T18:20:49.306Z,19.60
2023-04-24T18:23:20.764Z,19.20
2023-04-24T18:25:51.672Z,19.10
2023-04-24T18:28:22.524Z,19.60
2023-04-24T18:30:53.457Z,19.40
2023-04-24T18:33:24.613Z,19.40
2023-04-24T18:35:55.837Z,19.50
2023-04-24T18:38:26.743Z,19.00
2023-04-24T18:40:58.022Z,19.40
2023-04-24T18:43:32.636Z,19.00
2023-04-24T18:46:03.754Z,19.40
2023-04-24T18:48:34.675Z,19.60
2023-04-24T18:51:05.649Z,19.50
2023-04-24T18:53:36.672Z,19.10
2023-04-24T18:56:07.633Z,19.30
2023-04-24T18:58:38.527Z,18.90
2023-04-24T19:01:09.495Z,19.00
2023-04-24T19:03:40.876Z,19.10
2023-04-24T19:06:11.947Z,18.60
2023-04-24T19:08:44.744Z,19.00
2023-04-24T19:11:16.262Z,19.10
2023-04-24T19:13:47.135Z,18.50
2023-04-24T19:16:18.420Z,19.00
2023-04-24T19:18:49.692Z,19.30
2023-04-24T19:21:21.229Z,19.10
2023-04-24T19:23:52.856Z,19.00
2023-04-24T19:26:24.463Z,19.20
2023-04-24T19:28:57.715Z,18.60
2023-04-24T19:31:28.672Z,18.20
2023-04-24T19:33:59.579Z,18.80
2023-04-24T19:36:32.385Z,18.80
2023-04-24T19:39:04.020Z,18.60
2023-04-24T19:41:36.515Z,18.80
2023-04-24T19:44:07.472Z,18.50
2023-04-24T19:46:39.912Z,18.90
2023-04-24T19:49:11.168Z,18.70
2023-04-24T19:51:42.025Z,19.10
2023-04-24T19:54:13.885Z,18.60
2023-04-24T19:56:44.752Z,18.60
2023-04-24T19:59:16.425Z,18.80
2023-04-24T20:01:48.233Z,18.70
2023-04-24T20:04:23.412Z,18.70
2023-04-24T20:06:54.730Z,18.50
2023-04-24T20:09:25.738Z,18.60
2023-04-24T20:11:57.234Z,18.50
2023-04-24T20:14:28.148Z,18.50
2023-04-24T20:16:59.016Z,17.80
2023-04-24T20:19:30.230Z,18.50
2023-04-24T20:22:01.198Z,18.40
2023-04-24T20:24:32.232Z,18.40
2023-04-24T20:27:03.781Z,18.40
2023-04-24T20:29:35.088Z,18.50
2023-04-24T20:32:06.916Z,18.40
2023-04-24T20:34:37.935Z,18.60
2023-04-24T20:37:08.832Z,18.50
2023-04-24T20:39:39.944Z,18.20
2023-04-24T20:42:11.358Z,18.00
2023-04-24T20:44:42.377Z,18.30
2023-04-24T20:47:13.302Z,18.20
2023-04-24T20:49:44.163Z,17.90
2023-04-24T20:52:15.060Z,17.70
2023-04-24T20:54:46.818Z,17.30
2023-04-24T20:57:17.814Z,17.50
2023-04-24T20:59:49.078Z,17.30
2023-04-24T21:02:20.077Z,17.30
2023-04-24T21:04:51.189Z,17.50
2023-04-24T21:07:22.085Z,17.90
2023-04-24T21:09:53.000Z,17.60
2023-04-24T21:12:23.970Z,17.60
2023-04-24T21:14:54.865Z,17.80
2023-04-24T21:17:25.970Z,17.80
2023-04-24T21:19:56.987Z,17.70
2023-04-24T21:22:27.911Z,17.70
2023-04-24T21:24:58.823Z,17.40
2023-04-24T21:27:29.927Z,17.30
2023-04-24T21:30:00.849Z,17.20
2023-04-24T21:32:31.750Z,17.10
2023-04-24T21:35:02.855Z,17.40
2023-04-24T21:37:35.525Z,17.30
2023-04-24T21:40:08.165Z,17.20
2023-04-24T21:42:39.728Z,17.20
2023-04-24T21:45:11.392Z,17.30
2023-04-24T21:47:42.281Z,17.40
2023-04-24T21:50:13.151Z,17.90
2023-04-24T21:52:44.103Z,17.60
2023-04-24T21:55:15.133Z,17.50
2023-04-24T21:57:46.133Z,17.20
2023-04-24T22:00:17.368Z,17.30
2023-04-24T22:02:49.254Z,17.20
2023-04-24T22:05:20.365Z,17.20
2023-04-24T22:07:51.492Z,17.30
2023-04-24T22:10:22.442Z,17.10
2023-04-24T22:12:54.276Z,17.30
2023-04-24T22:15:25.247Z,17.50
2023-04-24T22:17:57.639Z,17.70
2023-04-24T22:20:30.134Z,17.60
2023-04-24T22:23:01.131Z,17.40
2023-04-24T22:25:32.176Z,17.40
2023-04-24T22:28:04.002Z,17.60
2023-04-24T22:30:34.913Z,17.50
2023-04-24T22:33:06.048Z,17.50
2023-04-24T22:35:37.520Z,17.30
2023-04-24T22:38:08.479Z,17.20
2023-04-24T22:40:40.512Z,17.30
2023-04-24T22:43:11.623Z,17.20
2023-04-24T22:45:42.495Z,17.10
2023-04-24T22:48:13.362Z,17.20
2023-04-24T22:50:44.360Z,17.40
2023-04-24T22:53:15.245Z,17.20
2023-04-24T22:55:46.601Z,17.50
2023-04-24T22:58:17.491Z,17.90
2023-04-24T23:00:48.474Z,17.80
2023-04-24T23:03:19.752Z,17.40
2023-04-24T23:05:50.904Z,17.30
2023-04-24T23:08:21.927Z,17.40
2023-04-24T23:10:53.027Z,17.60
2023-04-24T23:13:24.085Z,17.80
2023-04-24T23:15:55.365Z,17.60
2023-04-24T23:18:26.246Z,17.80
2023-04-24T23:20:58.157Z,17.80
2023-04-24T23:23:29.368Z,17.50
2023-04-24T23:26:00.931Z,17.70
2023-04-24T23:28:31.927Z,17.60
2023-04-24T23:31:02.787Z,17.60
2023-04-24T23:33:33.695Z,17.20
2023-04-24T23:36:06.193Z,16.30
2023-04-24T23:38:49.080Z,16.00
2023-04-24T23:41:21.413Z,16.80
2023-04-24T23:43:52.460Z,16.00
2023-04-24T23:46:23.400Z,15.80
2023-04-24T23:48:54.324Z,15.90
2023-04-24T23:51:25.379Z,15.90
2023-04-24T23:53:56.428Z,16.00
2023-04-24T23:56:29.228Z,16.10
2023-04-24T23:59:00.178Z,16.70
